Aeroporto :
LOGIN :

Iscrizione | Disclaimer

   EN    FR    IT 

 










Sommario :    VFR   VFR Marginale   IFR   IFR Intensivo   IFR Molto Intensivo
Visibilità : 
Base nubi : 
>= 8 km
>= 3000ft
5 / 8 km
1000 / 3000 ft
1500m / 5 km
500 / 1000 ft
800 / 1500m
200 / 500 ft
< 800m
< 200 ft
Simboli :   Temporali  Nebbia  Neve Forte  Precipitazioni Forti  Vento > 20 kt
SIGMETs :   Varie  Temporali  Ghiacco  Turbolenza  Onda orograficha  Ceneri Vulcaniche






- Altitudine del aeroporto : 359 ft
- Codice IATA : BVA


LFOB - Beauvais

ULTIMO METAR :
  • 090200Z AUTO 22021KT 9999 BKN026 OVC032 08/04 Q1000 TEMPO 24027G45KT 1300 TSRA BKN011 BKN025CB

METARs OBSOLETI :
  • 090130Z AUTO 22019KT 9999 FEW022 BKN027 BKN032 07/04 Q1000
  • 090100Z AUTO 22019KT 9999 SCT022/// BKN028/// BKN036/// ///TCU 07/04 Q1000 TEMPO 24027G45KT 1300 TSRA BKN011 BKN025CB
  • 090030Z AUTO 23017KT 200V260 9999 BKN023/// BKN028/// OVC033/// ///TCU 07/04 Q1001 TEMPO 24027G45KT 1300 TSRA BKN011 BKN025CB
  • 090000Z AUTO 21017KT 9999 FEW034/// BKN041/// BKN048/// ///CB 07/04 Q1002 TEMPO 24027G45KT 1300 TSRA BKN011 BKN025CB
  • 082330Z AUTO 23020KT 9999 FEW030/// SCT054/// BKN088/// ///CB 08/03 Q1003 TEMPO 24027G45KT 1300 TSRA BKN011 BKN025CB

TAF TAF LFOB
Valido dal 09 a 00 ore il 10 a 00 ore UTC


082300Z 0900/0924 25015G25KT 9999 SCT030
TEMPO 0900/0910 25020G35KT 3000 SHRA BKN011 BKN025CB
PROB40
TEMPO 0900/0908 24027G45KT 1300 TSRA
BECMG 0910/0912 34020G30KT
TEMPO 0910/0914 34025G35KT 3000 SHRA BKN025TCU
BECMG 0916/0918 34015KT
BECMG 0921/0924 VRB02KT
ATIS : +33 3 44 11 49 28



MetMap, La meteo Aeronautica in un colpo d'occhio ! - Copyright ORBIFLY Dicembre 2007 - Disclaimer

ORBIFLY MET'MAP TEAM :

Programmazione e sviluppo : Alexandra Zaïnal
Concezione : Baudouin d'Aumeries
Aiuto per la programmazione : Marc-Olivier Méhu
Supporto tecnico e logistico : Manuel Goepfert
Aiuto per la traduzione : Arnaldo La Scala

Contatto : metmap@orbifly.com




FONTI E CREDITI :

   NOAA